Terminal Aerodrome Forecast
Issued by NWS Chicago, IL

Home | Current Version | Previous Version | Text Only | Print | Product List | Glossary Off
Versions: 1 2 3 4 5 6 7 8 9 10 11 12 13 14 15 16 17 18 19 20 21 22 23 24 25

749
FTUS43 KLOT 042331
TAFRFD
TAF
KRFD 042331Z 0500/0524 22006KT P6SM VCSH BKN080
      TEMPO 0503/0507 6SM -SHSN BKN050
     FM050900 32007KT P6SM BKN015
     FM051600 28005KT P6SM BKN150=

USA.gov is the U.S. government's official web portal to all federal, state and local government web resources and services.